Time;durP1;ratioP1;P1;durP2;ratioP2;P2;SDS_P1;SDS_P2;PMS_P1;PMS_P2;Temp;Humidity;BMP_temperature;BMP_pressure;BME280_temperature;BME280_humidity;BME280_pressure;Samples;Min_cycle;Max_cycle;Signal;HPM_P1;HPM_P2
2022/04/17 00:01:52;;;;;;;;;;;;;;;;;;4907752;28;19934;-86
2022/04/17 00:04:20;;;;;;;;;;;;;;;;;;4976509;28;19929;-86
2022/04/17 00:06:51;;;;;;;;;;;;;;;;;;4977117;28;20272;-86
2022/04/17 00:09:18;;;;;;;;;;;;;;;;;;4967405;28;19929;-86
2022/04/17 00:11:45;;;;;;;;;;;;;;;;;;4960988;28;19929;-87
2022/04/17 00:14:13;;;;;;;;;;;;;;;;;;4963593;28;19985;-86
2022/04/17 00:16:40;;;;;;;;;;;;;;;;;;4950376;28;19930;-87
2022/04/17 00:19:07;;;;;;;;;;;;;;;;;;4964551;28;19930;-87
2022/04/17 00:21:36;;;;;;;;;;;;;;;;;;5002401;28;20017;-86
2022/04/17 00:24:04;;;;;;;;;;;;;;;;;;5006091;28;19925;-86
2022/04/17 00:26:31;;;;;;;;;;;;;;;;;;5005671;28;20047;-86
2022/04/17 00:28:58;;;;;;;;;;;;;;;;;;5005629;28;19929;-87
2022/04/17 00:31:26;;;;;;;;;;;;;;;;;;5009660;28;19921;-86
2022/04/17 00:33:53;;;;;;;;;;;;;;;;;;5005734;28;19936;-87
2022/04/17 00:36:20;;;;;;;;;;;;;;;;;;5009146;28;19933;-87
2022/04/17 00:38:50;;;;;;;;;;;;;;;;;;5005639;28;20015;-86
2022/04/17 00:41:16;;;;;;;;;;;;;;;;;;5010392;28;20372;-87
2022/04/17 00:43:47;;;;;;;;;;;;;;;;;;5015077;28;19967;-87
2022/04/17 00:46:16;;;;;;;;;;;;;;;;;;5008158;28;20007;-86
2022/04/17 00:48:43;;;;;;;;;;;;;;;;;;5011284;28;19921;-87
2022/04/17 00:51:09;;;;;;;;;;;;;;;;;;5008633;28;19970;-86
2022/04/17 00:53:36;;;;;;;;;;;;;;;;;;5022838;28;19972;-87
2022/04/17 00:56:07;;;;;;;;;;;;;;;;;;5002926;28;20036;-86
2022/04/17 00:58:34;;;;;;;;;;;;;;;;;;5024552;28;19948;-87
2022/04/17 01:01:01;;;;;;;;;;;;;;;;;;5003765;28;19929;-86
2022/04/17 01:03:28;;;;;;;;;;;;;;;;;;5008943;28;19992;-86
2022/04/17 01:05:55;;;;;;;;;;;;;;;;;;5001897;28;20380;-86
2022/04/17 01:08:21;;;;;;;;;;;;;;;;;;5007399;28;19973;-86
2022/04/17 01:10:49;;;;;;;;;;;;;;;;;;4986831;28;20016;-86
2022/04/17 01:13:15;;;;;;;;;;;;;;;;;;5004817;28;20047;-86
2022/04/17 01:15:43;;;;;;;;;;;;;;;;;;5024443;28;20659;-86
2022/04/17 01:18:26;;;;;;;;;;;;;;;;;;5007263;28;19933;-86
2022/04/17 01:20:53;;;;;;;;;;;;;;;;;;5003837;28;20071;-86
2022/04/17 01:28:53;;;;;;;;;;;;;;;;;;5009456;28;19929;-86
2022/04/17 01:31:20;;;;;;;;;;;;;;;;;;4986254;28;19929;-86
2022/04/17 01:33:47;;;;;;;;;;;;;;;;;;5004514;28;20051;-87
2022/04/17 01:36:14;;;;;;;;;;;;;;;;;;5006058;28;20439;-86
2022/04/17 01:38:42;;;;;;;;;;;;;;;;;;4991877;28;19976;-87
2022/04/17 01:41:09;;;;;;;;;;;;;;;;;;4984718;28;20011;-86
2022/04/17 01:43:36;;;;;;;;;;;;;;;;;;4988163;28;19940;-86
2022/04/17 01:46:11;;;;;;;;;;;;;;;;;;5001527;28;19936;-87
2022/04/17 01:48:38;;;;;;;;;;;;;;;;;;4989882;28;19921;-87
2022/04/17 01:51:05;;;;;;;;;;;;;;;;;;4987144;28;19929;-87
2022/04/17 01:53:32;;;;;;;;;;;;;;;;;;4985996;28;19976;-86
2022/04/17 01:56:00;;;;;;;;;;;;;;;;;;5000779;28;19925;-86
2022/04/17 01:58:27;;;;;;;;;;;;;;;;;;5006371;28;19933;-86
2022/04/17 02:00:53;;;;;;;;;;;;;;;;;;5000282;28;19936;-87
2022/04/17 02:03:26;;;;;;;;;;;;;;;;;;4987602;28;19999;-86
2022/04/17 02:05:53;;;;;;;;;;;;;;;;;;4982381;28;19952;-87
2022/04/17 02:08:19;;;;;;;;;;;;;;;;;;4988399;28;20877;-86
2022/04/17 02:10:47;;;;;;;;;;;;;;;;;;4988090;28;19971;-86
2022/04/17 02:13:14;;;;;;;;;;;;;;;;;;4987719;28;19929;-86
2022/04/17 02:15:41;;;;;;;;;;;;;;;;;;4985051;28;19928;-86
2022/04/17 02:18:13;;;;;;;;;;;;;;;;;;4977646;28;19922;-86
2022/04/17 02:20:39;;;;;;;;;;;;;;;;;;4971529;28;19925;-86
2022/04/17 02:23:12;;;;;;;;;;;;;;;;;;4949347;28;19926;-86
2022/04/17 02:25:43;;;;;;;;;;;;;;;;;;4981265;28;19933;-86
2022/04/17 02:28:09;;;;;;;;;;;;;;;;;;4982139;28;19937;-86
2022/04/17 02:30:37;;;;;;;;;;;;;;;;;;4986526;28;19929;-86
2022/04/17 02:33:04;;;;;;;;;;;;;;;;;;4986714;28;19921;-86
2022/04/17 02:35:31;;;;;;;;;;;;;;;;;;5003309;28;19925;-86
2022/04/17 02:37:58;;;;;;;;;;;;;;;;;;4983821;28;19925;-86
2022/04/17 02:40:24;;;;;;;;;;;;;;;;;;4993097;28;20257;-86
2022/04/17 02:42:53;;;;;;;;;;;;;;;;;;4983297;28;19925;-86
2022/04/17 02:45:32;;;;;;;;;;;;;;;;;;4999299;28;19921;-86
2022/04/17 02:47:59;;;;;;;;;;;;;;;;;;4966832;28;19925;-86
2022/04/17 02:50:27;;;;;;;;;;;;;;;;;;4988257;28;20016;-86
2022/04/17 02:52:55;;;;;;;;;;;;;;;;;;4983989;28;20011;-86
2022/04/17 02:55:23;;;;;;;;;;;;;;;;;;4986082;28;19939;-87
2022/04/17 02:57:50;;;;;;;;;;;;;;;;;;4983020;28;19963;-86
2022/04/17 03:00:16;;;;;;;;;;;;;;;;;;4986466;28;19929;-86
2022/04/17 03:08:13;;;;;;;;;;;;;;;;;;5002506;28;19968;-86
2022/04/17 03:10:39;;;;;;;;;;;;;;;;;;4987360;28;19976;-86
2022/04/17 03:13:12;;;;;;;;;;;;;;;;;;4979913;28;19928;-86
2022/04/17 03:15:38;;;;;;;;;;;;;;;;;;4983243;28;19933;-86
2022/04/17 03:18:05;;;;;;;;;;;;;;;;;;4999746;28;19929;-86
2022/04/17 03:20:32;;;;;;;;;;;;;;;;;;4987966;28;19921;-86
2022/04/17 03:22:59;;;;;;;;;;;;;;;;;;4983040;28;19929;-86
2022/04/17 03:25:26;;;;;;;;;;;;;;;;;;4987326;28;19995;-86
2022/04/17 03:27:53;;;;;;;;;;;;;;;;;;4988441;28;19933;-86
2022/04/17 03:30:24;;;;;;;;;;;;;;;;;;5006426;28;19922;-86
2022/04/17 03:32:52;;;;;;;;;;;;;;;;;;5000713;28;19930;-86
2022/04/17 03:35:20;;;;;;;;;;;;;;;;;;4987611;28;19940;-86
2022/04/17 03:37:46;;;;;;;;;;;;;;;;;;5009091;28;20560;-86
2022/04/17 03:40:15;;;;;;;;;;;;;;;;;;4939292;28;19937;-86
2022/04/17 03:42:41;;;;;;;;;;;;;;;;;;4987673;28;19922;-86
2022/04/17 03:45:11;;;;;;;;;;;;;;;;;;4998042;28;19925;-86
2022/04/17 03:47:39;;;;;;;;;;;;;;;;;;4985818;28;19940;-86
2022/04/17 03:50:06;;;;;;;;;;;;;;;;;;4985488;28;20354;-86
2022/04/17 03:52:34;;;;;;;;;;;;;;;;;;4989746;28;19960;-86
2022/04/17 03:55:03;;;;;;;;;;;;;;;;;;5000051;28;19929;-86
2022/04/17 03:57:31;;;;;;;;;;;;;;;;;;4987521;28;19925;-86
2022/04/17 03:59:58;;;;;;;;;;;;;;;;;;4982152;28;20323;-86
2022/04/17 04:02:43;;;;;;;;;;;;;;;;;;4942437;28;19933;-86
2022/04/17 04:05:24;;;;;;;;;;;;;;;;;;4942485;28;20066;-86
2022/04/17 04:07:57;;;;;;;;;;;;;;;;;;4939926;28;19952;-86
2022/04/17 04:10:24;;;;;;;;;;;;;;;;;;4929419;28;19934;-86
2022/04/17 04:12:51;;;;;;;;;;;;;;;;;;4939039;28;23100;-86
2022/04/17 04:15:34;;;;;;;;;;;;;;;;;;4924535;28;20423;-86
2022/04/17 04:18:14;;;;;;;;;;;;;;;;;;4924792;28;20770;-86
2022/04/17 04:20:43;;;;;;;;;;;;;;;;;;4927243;28;19952;-86
2022/04/17 04:23:13;;;;;;;;;;;;;;;;;;4925634;28;19923;-86
2022/04/17 04:25:40;;;;;;;;;;;;;;;;;;4926739;28;19931;-86
2022/04/17 04:31:02;;;;;;;;;;;;;;;;;;4942639;28;19977;-86
2022/04/17 04:33:35;;;;;;;;;;;;;;;;;;4938620;28;19933;-86
2022/04/17 04:36:02;;;;;;;;;;;;;;;;;;4942792;28;19926;-86
2022/04/17 04:38:29;;;;;;;;;;;;;;;;;;4949126;28;19928;-86
2022/04/17 04:40:56;;;;;;;;;;;;;;;;;;4959029;28;20076;-86
2022/04/17 04:43:22;;;;;;;;;;;;;;;;;;4945843;28;19933;-86
2022/04/17 04:51:19;;;;;;;;;;;;;;;;;;5005657;28;19929;-86
2022/04/17 04:53:46;;;;;;;;;;;;;;;;;;4973704;28;20292;-86
2022/04/17 04:56:25;;;;;;;;;;;;;;;;;;4974100;28;19978;-86
2022/04/17 04:58:52;;;;;;;;;;;;;;;;;;4984337;28;19925;-86
2022/04/17 05:01:19;;;;;;;;;;;;;;;;;;4984357;28;19936;-86
2022/04/17 05:03:46;;;;;;;;;;;;;;;;;;4977618;28;19944;-86
2022/04/17 05:06:13;;;;;;;;;;;;;;;;;;4990869;28;20387;-86
2022/04/17 05:08:40;;;;;;;;;;;;;;;;;;4975914;28;19936;-86
2022/04/17 05:11:07;;;;;;;;;;;;;;;;;;4986827;28;20402;-86
2022/04/17 05:13:34;;;;;;;;;;;;;;;;;;5006528;28;20276;-86
2022/04/17 05:16:02;;;;;;;;;;;;;;;;;;4987755;28;19929;-86
2022/04/17 05:18:28;;;;;;;;;;;;;;;;;;4991430;28;19929;-86
2022/04/17 05:20:55;;;;;;;;;;;;;;;;;;4990164;28;19937;-86
2022/04/17 05:23:29;;;;;;;;;;;;;;;;;;5009346;28;19967;-86
2022/04/17 05:25:56;;;;;;;;;;;;;;;;;;4989352;28;19928;-86
2022/04/17 05:28:23;;;;;;;;;;;;;;;;;;4999956;28;20675;-86
2022/04/17 05:30:52;;;;;;;;;;;;;;;;;;4970767;28;20016;-86
2022/04/17 05:33:19;;;;;;;;;;;;;;;;;;4991299;28;19929;-86
2022/04/17 05:35:46;;;;;;;;;;;;;;;;;;4996674;28;19968;-86
2022/04/17 05:38:28;;;;;;;;;;;;;;;;;;4986173;28;20016;-86
2022/04/17 05:40:55;;;;;;;;;;;;;;;;;;4949070;28;19952;-86
2022/04/17 05:43:37;;;;;;;;;;;;;;;;;;4930946;28;20304;-85
2022/04/17 05:46:04;;;;;;;;;;;;;;;;;;4915369;28;20032;-86
2022/04/17 05:48:31;;;;;;;;;;;;;;;;;;4916203;28;19954;-86
2022/04/17 05:50:58;;;;;;;;;;;;;;;;;;4912832;28;19926;-86
2022/04/17 05:53:28;;;;;;;;;;;;;;;;;;4916231;28;20392;-86
2022/04/17 05:55:55;;;;;;;;;;;;;;;;;;4926495;28;19970;-86
2022/04/17 05:58:26;;;;;;;;;;;;;;;;;;4931255;28;19926;-86
2022/04/17 06:00:53;;;;;;;;;;;;;;;;;;4926639;28;19937;-86
2022/04/17 06:03:21;;;;;;;;;;;;;;;;;;4911971;28;19930;-86
2022/04/17 06:05:47;;;;;;;;;;;;;;;;;;4894432;28;20347;-86
2022/04/17 06:08:15;;;;;;;;;;;;;;;;;;4912785;28;20409;-86
2022/04/17 06:11:01;;;;;;;;;;;;;;;;;;4956369;28;19924;-85
2022/04/17 06:13:28;;;;;;;;;;;;;;;;;;4947422;28;20074;-86
2022/04/17 06:15:54;;;;;;;;;;;;;;;;;;4985685;28;19929;-86
2022/04/17 06:18:21;;;;;;;;;;;;;;;;;;5023229;28;19925;-86
2022/04/17 06:20:48;;;;;;;;;;;;;;;;;;5020976;28;19929;-86
2022/04/17 06:23:15;;;;;;;;;;;;;;;;;;5025399;28;20257;-86
2022/04/17 06:26:04;;;;;;;;;;;;;;;;;;5017740;28;20279;-86
2022/04/17 06:28:32;;;;;;;;;;;;;;;;;;4989017;28;19929;-86
2022/04/17 06:30:59;;;;;;;;;;;;;;;;;;5005279;28;20273;-86
2022/04/17 06:33:26;;;;;;;;;;;;;;;;;;5005682;28;19925;-86
2022/04/17 06:35:52;;;;;;;;;;;;;;;;;;5003327;28;21245;-86
2022/04/17 06:38:25;;;;;;;;;;;;;;;;;;5007107;28;19936;-86
2022/04/17 06:40:53;;;;;;;;;;;;;;;;;;5004469;28;19929;-86
2022/04/17 06:43:20;;;;;;;;;;;;;;;;;;5006293;28;20418;-86
2022/04/17 06:45:47;;;;;;;;;;;;;;;;;;5008920;28;19928;-86
2022/04/17 06:48:17;;;;;;;;;;;;;;;;;;5003858;28;20151;-86
2022/04/17 06:50:44;;;;;;;;;;;;;;;;;;4994017;28;19925;-86
2022/04/17 06:53:11;;;;;;;;;;;;;;;;;;5004510;28;19979;-86
2022/04/17 06:55:41;;;;;;;;;;;;;;;;;;5010367;28;19932;-86
2022/04/17 06:58:11;;;;;;;;;;;;;;;;;;5004699;28;19929;-86
2022/04/17 07:00:39;;;;;;;;;;;;;;;;;;5009871;28;19925;-86
2022/04/17 07:03:07;;;;;;;;;;;;;;;;;;5002197;28;20433;-86
2022/04/17 07:05:34;;;;;;;;;;;;;;;;;;5011586;28;19936;-86
2022/04/17 07:08:00;;;;;;;;;;;;;;;;;;5015587;28;19947;-86
2022/04/17 07:10:30;;;;;;;;;;;;;;;;;;5016372;28;19979;-86
2022/04/17 07:12:59;;;;;;;;;;;;;;;;;;5023664;28;19979;-86
2022/04/17 07:15:38;;;;;;;;;;;;;;;;;;5019193;28;19932;-86
2022/04/17 07:18:13;;;;;;;;;;;;;;;;;;5015729;28;19921;-87
2022/04/17 07:20:40;;;;;;;;;;;;;;;;;;4999590;28;19925;-87
2022/04/17 07:23:08;;;;;;;;;;;;;;;;;;5012534;28;20076;-86
2022/04/17 07:25:36;;;;;;;;;;;;;;;;;;4997788;28;19992;-86
2022/04/17 07:28:02;;;;;;;;;;;;;;;;;;5003516;28;19932;-87
2022/04/17 07:30:33;;;;;;;;;;;;;;;;;;4988973;28;19932;-87
2022/04/17 07:33:00;;;;;;;;;;;;;;;;;;4982768;28;19929;-87
2022/04/17 07:35:29;;;;;;;;;;;;;;;;;;5004523;28;20016;-87
2022/04/17 07:38:02;;;;;;;;;;;;;;;;;;5000544;28;19929;-87
2022/04/17 07:40:30;;;;;;;;;;;;;;;;;;4989644;28;19951;-87
2022/04/17 07:42:58;;;;;;;;;;;;;;;;;;4968838;28;20535;-87
2022/04/17 07:45:27;;;;;;;;;;;;;;;;;;5004979;28;19925;-87
2022/04/17 07:47:55;;;;;;;;;;;;;;;;;;4986571;28;19936;-87
2022/04/17 07:50:23;;;;;;;;;;;;;;;;;;4973466;28;19976;-86
2022/04/17 07:52:50;;;;;;;;;;;;;;;;;;4976292;28;19929;-86
2022/04/17 07:55:17;;;;;;;;;;;;;;;;;;4992277;28;19933;-86
2022/04/17 08:00:31;;;;;;;;;;;;;;;;;;4991255;28;19936;-87
2022/04/17 08:03:08;;;;;;;;;;;;;;;;;;5001587;28;19924;-86
2022/04/17 08:05:38;;;;;;;;;;;;;;;;;;4988465;28;19947;-86
2022/04/17 08:08:06;;;;;;;;;;;;;;;;;;4985830;28;19925;-86
2022/04/17 08:10:33;;;;;;;;;;;;;;;;;;5002919;28;19929;-86
2022/04/17 08:13:00;;;;;;;;;;;;;;;;;;5002155;28;19922;-87
2022/04/17 08:15:28;;;;;;;;;;;;;;;;;;5010511;28;19929;-87
2022/04/17 08:17:55;;;;;;;;;;;;;;;;;;5007264;28;20368;-87
2022/04/17 08:20:21;;;;;;;;;;;;;;;;;;4994322;28;19925;-87
2022/04/17 08:22:47;;;;;;;;;;;;;;;;;;4985565;28;19936;-86
2022/04/17 08:25:28;;;;;;;;;;;;;;;;;;4980853;28;19932;-87
2022/04/17 08:27:58;;;;;;;;;;;;;;;;;;4978461;28;19925;-87
2022/04/17 08:30:23;;;;;;;;;;;;;;;;;;4953371;28;24618;-87
2022/04/17 08:32:49;;;;;;;;;;;;;;;;;;4959648;28;19984;-87
2022/04/17 08:35:22;;;;;;;;;;;;;;;;;;4961364;28;20356;-87
2022/04/17 08:37:49;;;;;;;;;;;;;;;;;;4965212;28;19934;-87
2022/04/17 08:40:16;;;;;;;;;;;;;;;;;;4984401;28;19968;-87
2022/04/17 08:42:44;;;;;;;;;;;;;;;;;;4988995;28;20011;-86
2022/04/17 08:45:11;;;;;;;;;;;;;;;;;;4974098;28;20470;-87
2022/04/17 08:47:54;;;;;;;;;;;;;;;;;;4933814;28;19937;-87
2022/04/17 08:50:22;;;;;;;;;;;;;;;;;;4921284;28;20425;-87
2022/04/17 08:53:03;;;;;;;;;;;;;;;;;;4867673;29;19923;-87
2022/04/17 08:55:31;;;;;;;;;;;;;;;;;;4861951;29;19979;-84
2022/04/17 08:57:58;;;;;;;;;;;;;;;;;;4871193;29;20079;-84
2022/04/17 09:00:32;;;;;;;;;;;;;;;;;;4880008;29;20038;-84
2022/04/17 09:03:09;;;;;;;;;;;;;;;;;;4874707;29;21476;-85
2022/04/17 09:05:39;;;;;;;;;;;;;;;;;;4861928;29;19930;-85
2022/04/17 09:08:06;;;;;;;;;;;;;;;;;;4888621;29;19932;-84
2022/04/17 09:10:34;;;;;;;;;;;;;;;;;;4881580;29;19959;-85
2022/04/17 09:13:01;;;;;;;;;;;;;;;;;;4892249;29;19934;-84
2022/04/17 09:15:28;;;;;;;;;;;;;;;;;;4889062;29;19931;-85
2022/04/17 09:17:55;;;;;;;;;;;;;;;;;;4883609;28;19931;-84
2022/04/17 09:20:22;;;;;;;;;;;;;;;;;;4934657;28;19927;-85
2022/04/17 09:22:49;;;;;;;;;;;;;;;;;;4921975;28;19930;-84
2022/04/17 09:25:17;;;;;;;;;;;;;;;;;;4924248;28;19930;-85
2022/04/17 09:27:43;;;;;;;;;;;;;;;;;;4935251;28;19926;-85
2022/04/17 09:30:10;;;;;;;;;;;;;;;;;;4971989;28;19925;-85
2022/04/17 09:32:38;;;;;;;;;;;;;;;;;;4996109;28;19975;-84
2022/04/17 09:35:03;;;;;;;;;;;;;;;;;;4989392;28;20148;-85
2022/04/17 09:37:35;;;;;;;;;;;;;;;;;;4993029;28;19928;-85
2022/04/17 09:40:10;;;;;;;;;;;;;;;;;;4999420;28;20020;-83
2022/04/17 09:42:37;;;;;;;;;;;;;;;;;;4992647;28;19921;-81
2022/04/17 09:45:04;;;;;;;;;;;;;;;;;;4987632;28;20258;-85
2022/04/17 09:47:32;;;;;;;;;;;;;;;;;;4994634;28;20028;-85
2022/04/17 09:49:59;;;;;;;;;;;;;;;;;;4990420;28;19921;-85
2022/04/17 09:52:26;;;;;;;;;;;;;;;;;;4995879;28;19961;-85
2022/04/17 09:54:55;;;;;;;;;;;;;;;;;;5008332;28;19929;-85
2022/04/17 09:57:31;;;;;;;;;;;;;;;;;;5014877;28;20275;-85
2022/04/17 09:59:58;;;;;;;;;;;;;;;;;;5002745;28;19929;-85
2022/04/17 10:02:26;;;;;;;;;;;;;;;;;;5013488;28;19921;-85
2022/04/17 10:04:53;;;;;;;;;;;;;;;;;;4991504;28;19964;-85
2022/04/17 10:07:22;;;;;;;;;;;;;;;;;;4994234;28;19933;-85
2022/04/17 10:09:58;;;;;;;;;;;;;;;;;;5010148;28;19967;-85
2022/04/17 10:12:26;;;;;;;;;;;;;;;;;;5013411;28;19929;-85
2022/04/17 10:14:53;;;;;;;;;;;;;;;;;;5006457;28;19933;-85
2022/04/17 10:17:20;;;;;;;;;;;;;;;;;;4999135;28;19925;-85
2022/04/17 10:20:06;;;;;;;;;;;;;;;;;;5009400;28;19920;-85
2022/04/17 10:22:34;;;;;;;;;;;;;;;;;;4998201;28;19936;-85
2022/04/17 10:25:02;;;;;;;;;;;;;;;;;;5006528;28;19923;-86
2022/04/17 10:27:29;;;;;;;;;;;;;;;;;;4989827;28;19966;-82
2022/04/17 10:29:56;;;;;;;;;;;;;;;;;;5005715;28;20028;-82
2022/04/17 10:32:23;;;;;;;;;;;;;;;;;;4994267;28;19929;-83
2022/04/17 10:34:51;;;;;;;;;;;;;;;;;;4980215;28;20483;-83
2022/04/17 10:37:19;;;;;;;;;;;;;;;;;;5007571;28;19940;-82
2022/04/17 10:39:46;;;;;;;;;;;;;;;;;;5011767;28;19936;-83
2022/04/17 10:42:13;;;;;;;;;;;;;;;;;;5012933;28;20286;-82
2022/04/17 10:44:45;;;;;;;;;;;;;;;;;;5007470;28;19932;-82
2022/04/17 10:47:20;;;;;;;;;;;;;;;;;;4995444;28;20470;-82
2022/04/17 10:49:46;;;;;;;;;;;;;;;;;;4994714;28;20020;-82
2022/04/17 10:52:16;;;;;;;;;;;;;;;;;;5004124;28;19925;-82
2022/04/17 10:54:44;;;;;;;;;;;;;;;;;;5011770;28;20030;-82
2022/04/17 10:57:11;;;;;;;;;;;;;;;;;;4991329;28;20514;-82
2022/04/17 10:59:40;;;;;;;;;;;;;;;;;;5012971;28;20020;-83
2022/04/17 11:02:12;;;;;;;;;;;;;;;;;;5010629;28;19978;-82
2022/04/17 11:04:44;;;;;;;;;;;;;;;;;;5003547;28;20456;-83
2022/04/17 11:07:14;;;;;;;;;;;;;;;;;;5000107;28;19929;-83
2022/04/17 11:09:42;;;;;;;;;;;;;;;;;;5006166;28;19983;-83
2022/04/17 11:12:12;;;;;;;;;;;;;;;;;;4980943;28;20004;-83
2022/04/17 11:14:40;;;;;;;;;;;;;;;;;;5005036;28;20476;-83
2022/04/17 11:17:09;;;;;;;;;;;;;;;;;;5003260;28;22543;-83
2022/04/17 11:19:37;;;;;;;;;;;;;;;;;;5011444;28;19928;-82
2022/04/17 11:22:20;;;;;;;;;;;;;;;;;;5002498;28;20051;-82
2022/04/17 11:24:46;;;;;;;;;;;;;;;;;;5004439;28;20018;-82
2022/04/17 11:27:12;;;;;;;;;;;;;;;;;;4983740;28;19937;-83
2022/04/17 11:29:40;;;;;;;;;;;;;;;;;;4992538;28;19982;-83
2022/04/17 11:32:07;;;;;;;;;;;;;;;;;;5005926;28;19932;-83
2022/04/17 11:34:34;;;;;;;;;;;;;;;;;;5013664;28;19966;-83
2022/04/17 11:37:01;;;;;;;;;;;;;;;;;;5028581;28;19924;-83
2022/04/17 11:39:30;;;;;;;;;;;;;;;;;;5012806;28;19924;-82
2022/04/17 11:42:11;;;;;;;;;;;;;;;;;;5034506;28;20270;-83
2022/04/17 11:44:42;;;;;;;;;;;;;;;;;;5017847;28;20053;-83
2022/04/17 11:47:10;;;;;;;;;;;;;;;;;;5029673;28;23984;-83
2022/04/17 11:49:37;;;;;;;;;;;;;;;;;;5015307;28;19936;-83
2022/04/17 11:52:04;;;;;;;;;;;;;;;;;;5007476;28;20548;-82
2022/04/17 11:54:30;;;;;;;;;;;;;;;;;;5008266;28;19967;-83
2022/04/17 11:57:03;;;;;;;;;;;;;;;;;;5010582;28;19935;-83
2022/04/17 11:59:30;;;;;;;;;;;;;;;;;;5012614;28;19921;-83
2022/04/17 12:01:58;;;;;;;;;;;;;;;;;;5006082;28;19929;-83
2022/04/17 12:04:24;;;;;;;;;;;;;;;;;;5007263;28;19925;-81
2022/04/17 12:06:51;;;;;;;;;;;;;;;;;;5023105;28;19982;-82
2022/04/17 12:09:18;;;;;;;;;;;;;;;;;;5031999;28;20023;-83
2022/04/17 12:11:59;;;;;;;;;;;;;;;;;;5025828;28;19929;-82
2022/04/17 12:14:26;;;;;;;;;;;;;;;;;;5019119;28;20034;-82
2022/04/17 12:16:53;;;;;;;;;;;;;;;;;;5030273;28;19956;-82
2022/04/17 12:19:20;;;;;;;;;;;;;;;;;;5035843;28;19936;-83
2022/04/17 12:21:46;;;;;;;;;;;;;;;;;;5014662;28;19968;-83
2022/04/17 12:24:19;;;;;;;;;;;;;;;;;;5037164;28;20236;-83
2022/04/17 12:26:47;;;;;;;;;;;;;;;;;;5037584;28;20019;-83
2022/04/17 12:29:23;;;;;;;;;;;;;;;;;;5030507;28;19928;-83
2022/04/17 12:31:51;;;;;;;;;;;;;;;;;;5012555;28;19983;-83
2022/04/17 12:34:19;;;;;;;;;;;;;;;;;;5038400;28;19925;-83
2022/04/17 12:36:48;;;;;;;;;;;;;;;;;;5032612;28;20078;-83
2022/04/17 12:39:15;;;;;;;;;;;;;;;;;;5029257;28;19998;-83
2022/04/17 12:42:02;;;;;;;;;;;;;;;;;;4983967;28;20016;-83
2022/04/17 12:44:29;;;;;;;;;;;;;;;;;;4989325;28;20356;-83
2022/04/17 12:46:56;;;;;;;;;;;;;;;;;;4970440;28;19929;-83
2022/04/17 12:49:28;;;;;;;;;;;;;;;;;;4991310;28;19956;-83
2022/04/17 12:52:03;;;;;;;;;;;;;;;;;;4988612;28;21144;-83
2022/04/17 12:54:48;;;;;;;;;;;;;;;;;;4988428;28;19955;-83
2022/04/17 12:57:34;;;;;;;;;;;;;;;;;;4973950;28;19959;-83
2022/04/17 13:00:02;;;;;;;;;;;;;;;;;;4980753;28;20287;-84
2022/04/17 13:02:29;;;;;;;;;;;;;;;;;;4989310;28;19930;-84
2022/04/17 13:04:56;;;;;;;;;;;;;;;;;;4984915;28;20106;-83
2022/04/17 13:07:22;;;;;;;;;;;;;;;;;;4967588;28;19930;-84
2022/04/17 13:09:49;;;;;;;;;;;;;;;;;;4963244;28;19929;-84
2022/04/17 13:12:17;;;;;;;;;;;;;;;;;;4986483;28;19929;-84
2022/04/17 13:14:43;;;;;;;;;;;;;;;;;;4967538;28;19933;-84
2022/04/17 13:17:11;;;;;;;;;;;;;;;;;;4975913;28;19925;-84
2022/04/17 13:19:38;;;;;;;;;;;;;;;;;;4968153;28;20774;-84
2022/04/17 13:22:05;;;;;;;;;;;;;;;;;;4955538;28;19925;-84
2022/04/17 13:24:33;;;;;;;;;;;;;;;;;;4985841;28;19929;-83
2022/04/17 13:27:00;;;;;;;;;;;;;;;;;;4960389;28;19929;-83
2022/04/17 13:29:27;;;;;;;;;;;;;;;;;;4967182;28;19963;-83
2022/04/17 13:31:54;;;;;;;;;;;;;;;;;;4981293;28;19940;-83
2022/04/17 13:34:21;;;;;;;;;;;;;;;;;;5002309;28;19926;-83
2022/04/17 13:40:00;;;;;;;;;;;;;;;;;;4954401;28;20552;-83
2022/04/17 13:42:39;;;;;;;;;;;;;;;;;;4982617;28;19988;-83
2022/04/17 13:45:06;;;;;;;;;;;;;;;;;;4979479;28;19952;-83
2022/04/17 13:47:33;;;;;;;;;;;;;;;;;;4984086;28;19931;-83
2022/04/17 13:50:06;;;;;;;;;;;;;;;;;;4981616;28;20076;-83
2022/04/17 13:52:32;;;;;;;;;;;;;;;;;;4984845;28;21702;-84
2022/04/17 13:55:14;;;;;;;;;;;;;;;;;;4943370;28;19930;-83
2022/04/17 13:57:41;;;;;;;;;;;;;;;;;;4949801;28;19971;-83
2022/04/17 14:00:09;;;;;;;;;;;;;;;;;;4940991;28;20566;-83
2022/04/17 14:02:36;;;;;;;;;;;;;;;;;;4937949;28;20332;-83
2022/04/17 14:05:06;;;;;;;;;;;;;;;;;;4918130;28;19925;-84
2022/04/17 14:07:34;;;;;;;;;;;;;;;;;;4937306;28;20028;-83
2022/04/17 14:10:01;;;;;;;;;;;;;;;;;;4940926;28;20430;-84
2022/04/17 14:12:28;;;;;;;;;;;;;;;;;;4976706;28;19929;-83
2022/04/17 14:14:56;;;;;;;;;;;;;;;;;;4972490;28;19976;-83
2022/04/17 14:17:43;;;;;;;;;;;;;;;;;;4919967;28;19922;-83
2022/04/17 14:20:10;;;;;;;;;;;;;;;;;;4933560;28;19985;-82
2022/04/17 14:22:37;;;;;;;;;;;;;;;;;;4908632;28;20110;-83
2022/04/17 14:25:05;;;;;;;;;;;;;;;;;;4913479;28;19922;-83
2022/04/17 14:27:32;;;;;;;;;;;;;;;;;;4958454;28;20389;-83
2022/04/17 14:29:58;;;;;;;;;;;;;;;;;;4953421;28;19929;-84
2022/04/17 14:32:26;;;;;;;;;;;;;;;;;;4954872;28;20030;-83
2022/04/17 14:34:53;;;;;;;;;;;;;;;;;;4951482;28;19934;-83
2022/04/17 14:37:34;;;;;;;;;;;;;;;;;;4953432;28;19930;-83
2022/04/17 14:40:01;;;;;;;;;;;;;;;;;;4949069;28;20412;-83
2022/04/17 14:42:28;;;;;;;;;;;;;;;;;;4938116;28;19942;-83
2022/04/17 14:44:55;;;;;;;;;;;;;;;;;;4933251;28;19922;-83
2022/04/17 14:47:22;;;;;;;;;;;;;;;;;;4936163;28;19926;-83
2022/04/17 14:49:49;;;;;;;;;;;;;;;;;;4931157;28;19922;-82
2022/04/17 14:52:16;;;;;;;;;;;;;;;;;;4939009;28;19926;-82
2022/04/17 14:54:42;;;;;;;;;;;;;;;;;;4931761;28;20165;-83
2022/04/17 14:57:10;;;;;;;;;;;;;;;;;;4942127;28;20367;-82
2022/04/17 14:59:39;;;;;;;;;;;;;;;;;;4953629;28;19926;-83
2022/04/17 15:02:06;;;;;;;;;;;;;;;;;;4930286;28;19940;-83
2022/04/17 15:04:32;;;;;;;;;;;;;;;;;;4969381;28;19928;-83
2022/04/17 15:07:02;;;;;;;;;;;;;;;;;;4966488;28;19980;-83
2022/04/17 15:09:30;;;;;;;;;;;;;;;;;;4969864;28;19930;-82
2022/04/17 15:12:12;;;;;;;;;;;;;;;;;;4967832;28;19965;-82
2022/04/17 15:14:39;;;;;;;;;;;;;;;;;;4966430;28;19921;-83
2022/04/17 15:17:06;;;;;;;;;;;;;;;;;;4988182;28;20008;-83
2022/04/17 15:19:33;;;;;;;;;;;;;;;;;;4996503;28;19936;-83
2022/04/17 15:22:01;;;;;;;;;;;;;;;;;;4992002;28;19921;-83
2022/04/17 15:24:27;;;;;;;;;;;;;;;;;;4996713;28;19937;-83
2022/04/17 15:26:53;;;;;;;;;;;;;;;;;;5004832;28;19976;-83
2022/04/17 15:29:19;;;;;;;;;;;;;;;;;;4993252;28;19994;-83
2022/04/17 15:31:47;;;;;;;;;;;;;;;;;;4993613;28;19929;-82
2022/04/17 15:34:14;;;;;;;;;;;;;;;;;;5009783;28;20415;-82
2022/04/17 15:36:41;;;;;;;;;;;;;;;;;;5011252;28;19940;-82
2022/04/17 15:39:06;;;;;;;;;;;;;;;;;;5003986;28;19933;-82
2022/04/17 15:41:34;;;;;;;;;;;;;;;;;;4999314;28;19971;-82
2022/04/17 15:49:34;;;;;;;;;;;;;;;;;;5016749;28;20043;-82
2022/04/17 15:52:01;;;;;;;;;;;;;;;;;;5007988;28;19925;-82
2022/04/17 15:54:37;;;;;;;;;;;;;;;;;;5014669;28;19932;-82
2022/04/17 15:57:10;;;;;;;;;;;;;;;;;;5005201;28;20305;-82
2022/04/17 15:59:39;;;;;;;;;;;;;;;;;;5014083;28;19960;-82
2022/04/17 16:02:06;;;;;;;;;;;;;;;;;;4992792;28;20003;-82
2022/04/17 16:04:32;;;;;;;;;;;;;;;;;;4988651;28;20364;-82
2022/04/17 16:06:58;;;;;;;;;;;;;;;;;;5001285;28;19929;-82
2022/04/17 16:09:25;;;;;;;;;;;;;;;;;;4987419;28;20372;-82
2022/04/17 16:11:52;;;;;;;;;;;;;;;;;;4983156;28;19991;-83
2022/04/17 16:14:19;;;;;;;;;;;;;;;;;;5008190;28;19948;-82
2022/04/17 16:16:56;;;;;;;;;;;;;;;;;;5002204;28;19933;-82
2022/04/17 16:19:23;;;;;;;;;;;;;;;;;;4988882;28;20008;-82
2022/04/17 16:21:50;;;;;;;;;;;;;;;;;;4986574;28;19937;-82
2022/04/17 16:24:18;;;;;;;;;;;;;;;;;;4990498;28;19973;-83
2022/04/17 16:26:47;;;;;;;;;;;;;;;;;;4989311;28;19929;-83
2022/04/17 16:29:20;;;;;;;;;;;;;;;;;;4988159;28;19994;-83
2022/04/17 16:31:47;;;;;;;;;;;;;;;;;;5011713;28;19929;-83
2022/04/17 16:34:14;;;;;;;;;;;;;;;;;;5008487;28;19929;-83
2022/04/17 16:36:50;;;;;;;;;;;;;;;;;;5002484;28;20839;-83
2022/04/17 16:39:17;;;;;;;;;;;;;;;;;;5011405;28;19983;-82
2022/04/17 16:41:44;;;;;;;;;;;;;;;;;;5019663;28;19921;-83
2022/04/17 16:44:11;;;;;;;;;;;;;;;;;;4993236;28;19925;-82
2022/04/17 16:46:38;;;;;;;;;;;;;;;;;;5019234;28;20278;-82
2022/04/17 16:49:06;;;;;;;;;;;;;;;;;;5011431;28;20019;-82
2022/04/17 16:51:36;;;;;;;;;;;;;;;;;;5020174;28;19929;-82
2022/04/17 16:54:03;;;;;;;;;;;;;;;;;;5015176;28;19935;-82
2022/04/17 16:56:30;;;;;;;;;;;;;;;;;;5015424;28;20350;-82
2022/04/17 16:59:13;;;;;;;;;;;;;;;;;;5015204;28;19936;-83
2022/04/17 17:01:40;;;;;;;;;;;;;;;;;;5019544;28;19936;-82
2022/04/17 17:04:06;;;;;;;;;;;;;;;;;;5012562;28;23171;-82
2022/04/17 17:06:34;;;;;;;;;;;;;;;;;;4999382;28;20365;-82
2022/04/17 17:09:02;;;;;;;;;;;;;;;;;;5018760;28;19952;-82
2022/04/17 17:11:29;;;;;;;;;;;;;;;;;;5019944;28;19925;-82
2022/04/17 17:13:56;;;;;;;;;;;;;;;;;;4994931;28;19921;-82
2022/04/17 17:16:24;;;;;;;;;;;;;;;;;;4996109;28;19940;-83
2022/04/17 17:18:52;;;;;;;;;;;;;;;;;;4988558;28;20299;-84
2022/04/17 17:21:19;;;;;;;;;;;;;;;;;;4997249;28;19925;-83
2022/04/17 17:23:46;;;;;;;;;;;;;;;;;;5016259;28;19952;-83
2022/04/17 17:26:14;;;;;;;;;;;;;;;;;;5010449;28;20303;-82
2022/04/17 17:28:41;;;;;;;;;;;;;;;;;;5014784;28;20327;-83